Time;durP1;ratioP1;P1;durP2;ratioP2;P2;SDS_P1;SDS_P2;PMS_P1;PMS_P2;Temp;Humidity;BMP_temperature;BMP_pressure;BME280_temperature;BME280_humidity;BME280_pressure;Samples;Min_cycle;Max_cycle;Signal;HPM_P1;HPM_P2
2022/08/01 00:01:46;;;;;;;0.10;0.10;;;;;;;;;;6221457;22;20019;-94
2022/08/01 00:04:12;;;;;;;0.10;0.10;;;;;;;;;;6219684;23;20015;-94
2022/08/01 00:06:38;;;;;;;0.10;0.10;;;;;;;;;;6220015;23;20035;-94
2022/08/01 00:09:04;;;;;;;0.10;0.10;;;;;;;;;;6219818;23;20012;-94
2022/08/01 00:11:30;;;;;;;0.10;0.10;;;;;;;;;;6219935;23;20087;-94
2022/08/01 00:13:56;;;;;;;0.10;0.10;;;;;;;;;;6220117;23;20008;-94
2022/08/01 00:16:22;;;;;;;0.85;0.85;;;;;;;;;;6218923;23;20012;-94
2022/08/01 00:18:50;;;;;;;0.10;0.10;;;;;;;;;;6218807;23;20009;-94
2022/08/01 00:21:16;;;;;;;0.30;0.30;;;;;;;;;;6219060;23;20201;-94
2022/08/01 00:23:45;;;;;;;0.10;0.10;;;;;;;;;;6219809;23;20451;-95
2022/08/01 00:26:11;;;;;;;0.20;0.20;;;;;;;;;;6220795;23;20016;-95
2022/08/01 00:28:37;;;;;;;0.20;0.20;;;;;;;;;;6221551;23;20011;-95
2022/08/01 00:31:03;;;;;;;0.13;0.13;;;;;;;;;;6221735;23;20012;-96
2022/08/01 00:33:29;;;;;;;0.10;0.10;;;;;;;;;;6222340;23;20329;-96
2022/08/01 00:35:56;;;;;;;0.10;0.10;;;;;;;;;;6222329;23;20008;-96
2022/08/01 00:38:22;;;;;;;0.10;0.10;;;;;;;;;;6221838;23;20004;-96
2022/08/01 00:40:48;;;;;;;0.10;0.10;;;;;;;;;;6221441;23;20000;-95
2022/08/01 00:43:15;;;;;;;0.25;0.25;;;;;;;;;;6221659;23;20471;-95
2022/08/01 00:45:41;;;;;;;0.10;0.10;;;;;;;;;;6221945;23;20087;-95
2022/08/01 00:48:07;;;;;;;0.10;0.10;;;;;;;;;;6221928;23;20008;-96
2022/08/01 00:50:33;;;;;;;0.55;0.43;;;;;;;;;;6222308;23;20047;-96
2022/08/01 00:53:00;;;;;;;0.10;0.10;;;;;;;;;;6222137;23;20000;-96
2022/08/01 00:55:27;;;;;;;0.10;0.10;;;;;;;;;;6222201;23;20000;-96
2022/08/01 00:57:53;;;;;;;0.10;0.10;;;;;;;;;;6222148;23;20011;-96
2022/08/01 01:00:20;;;;;;;3.13;0.68;;;;;;;;;;6222891;22;20485;-96
2022/08/01 01:02:46;;;;;;;0.10;0.10;;;;;;;;;;6222514;23;20450;-96
2022/08/01 01:05:12;;;;;;;0.10;0.10;;;;;;;;;;6222415;23;20011;-96
2022/08/01 01:07:54;;;;;;;0.10;0.10;;;;;;;;;;6222386;23;20011;-96
2022/08/01 01:10:20;;;;;;;0.10;0.10;;;;;;;;;;6222156;23;20041;-96
2022/08/01 01:13:10;;;;;;;0.10;0.10;;;;;;;;;;6222548;23;20060;-96
2022/08/01 01:15:44;;;;;;;0.10;0.10;;;;;;;;;;6203562;23;20014;-96
2022/08/01 01:18:10;;;;;;;0.10;0.10;;;;;;;;;;6222440;23;20394;-96
2022/08/01 01:20:38;;;;;;;0.10;0.10;;;;;;;;;;6222596;23;20454;-96
2022/08/01 01:23:24;;;;;;;0.10;0.10;;;;;;;;;;6222476;23;20004;-95
2022/08/01 01:26:09;;;;;;;0.10;0.10;;;;;;;;;;6223238;23;20011;-96
2022/08/01 01:28:54;;;;;;;0.13;0.13;;;;;;;;;;6223255;23;20428;-96
2022/08/01 01:31:21;;;;;;;0.20;0.20;;;;;;;;;;6223795;23;20000;-96
2022/08/01 01:33:49;;;;;;;0.20;0.20;;;;;;;;;;6229292;23;20004;-96
2022/08/01 01:36:16;;;;;;;0.10;0.10;;;;;;;;;;6229078;23;20031;-96
2022/08/01 01:38:44;;;;;;;0.10;0.10;;;;;;;;;;6235602;23;20056;-96
2022/08/01 01:41:11;;;;;;;0.10;0.10;;;;;;;;;;6235411;23;20429;-96
2022/08/01 01:43:38;;;;;;;0.10;0.10;;;;;;;;;;6239841;23;20425;-96
2022/08/01 01:46:11;;;;;;;0.10;0.10;;;;;;;;;;6248706;22;20012;-96
2022/08/01 01:48:39;;;;;;;0.10;0.10;;;;;;;;;;6240395;22;20000;-96
2022/08/01 01:51:05;;;;;;;0.20;0.20;;;;;;;;;;6248673;23;20008;-96
2022/08/01 01:53:32;;;;;;;0.10;0.10;;;;;;;;;;6248564;23;20011;-95
2022/08/01 01:55:59;;;;;;;0.10;0.10;;;;;;;;;;6248309;23;20030;-96
2022/08/01 01:58:26;;;;;;;0.20;0.20;;;;;;;;;;6229711;23;20433;-96
2022/08/01 02:01:06;;;;;;;0.10;0.10;;;;;;;;;;6228553;22;20027;-95
2022/08/01 02:03:36;;;;;;;0.10;0.10;;;;;;;;;;6225386;23;20313;-96
2022/08/01 02:06:02;;;;;;;0.10;0.10;;;;;;;;;;6223737;23;20058;-95
2022/08/01 02:08:30;;;;;;;0.10;0.10;;;;;;;;;;6222907;23;20440;-96
2022/08/01 02:13:42;;;;;;;0.10;0.10;;;;;;;;;;6249618;23;20019;-96
2022/08/01 02:16:11;;;;;;;0.10;0.10;;;;;;;;;;6222271;23;20008;-95
2022/08/01 02:18:38;;;;;;;0.10;0.10;;;;;;;;;;6222116;23;20340;-96
2022/08/01 02:21:05;;;;;;;0.10;0.10;;;;;;;;;;6221916;23;20008;-95
2022/08/01 02:23:34;;;;;;;0.10;0.10;;;;;;;;;;6222212;23;20363;-95
2022/08/01 02:26:02;;;;;;;0.10;0.10;;;;;;;;;;6221799;23;20035;-95
2022/08/01 02:28:36;;;;;;;0.10;0.10;;;;;;;;;;6221908;23;20004;-96
2022/08/01 02:31:05;;;;;;;0.10;0.10;;;;;;;;;;6221786;23;20008;-96
2022/08/01 02:33:37;;;;;;;0.10;0.10;;;;;;;;;;6221178;23;20015;-95
2022/08/01 02:36:03;;;;;;;0.10;0.10;;;;;;;;;;6220863;23;20063;-95
2022/08/01 02:38:31;;;;;;;0.10;0.10;;;;;;;;;;6221280;23;20038;-95
2022/08/01 02:41:00;;;;;;;0.10;0.10;;;;;;;;;;6221359;23;20005;-94
2022/08/01 02:43:27;;;;;;;0.10;0.10;;;;;;;;;;6220814;23;20104;-95
2022/08/01 02:45:56;;;;;;;0.10;0.10;;;;;;;;;;6221058;23;20012;-94
2022/08/01 02:48:24;;;;;;;0.10;0.10;;;;;;;;;;6220490;23;20007;-95
2022/08/01 02:50:52;;;;;;;0.10;0.10;;;;;;;;;;6221093;23;20004;-95
2022/08/01 02:53:20;;;;;;;0.10;0.10;;;;;;;;;;6221065;23;20058;-94
2022/08/01 02:55:47;;;;;;;0.10;0.10;;;;;;;;;;6220833;23;20004;-95
2022/08/01 02:58:14;;;;;;;0.10;0.10;;;;;;;;;;6220695;23;20035;-94
2022/08/01 03:00:41;;;;;;;0.10;0.10;;;;;;;;;;6221685;22;20031;-95
2022/08/01 03:03:08;;;;;;;0.10;0.10;;;;;;;;;;6220166;23;20018;-94
2022/08/01 03:05:35;;;;;;;0.10;0.10;;;;;;;;;;6220656;23;20032;-94
2022/08/01 03:08:02;;;;;;;0.20;0.20;;;;;;;;;;6220541;23;20012;-94
2022/08/01 03:10:29;;;;;;;0.10;0.10;;;;;;;;;;6219965;23;20042;-94
2022/08/01 03:12:56;;;;;;;0.10;0.10;;;;;;;;;;6220353;23;20091;-95
2022/08/01 03:15:23;;;;;;;0.10;0.10;;;;;;;;;;6220472;23;20390;-94
2022/08/01 03:17:53;;;;;;;0.10;0.10;;;;;;;;;;6220144;23;20087;-94
2022/08/01 03:20:23;;;;;;;0.10;0.10;;;;;;;;;;6220265;23;20007;-94
2022/08/01 03:22:51;;;;;;;0.10;0.10;;;;;;;;;;6220720;23;20004;-95
2022/08/01 03:25:18;;;;;;;0.10;0.10;;;;;;;;;;6221181;23;20004;-94
2022/08/01 03:27:46;;;;;;;0.10;0.10;;;;;;;;;;6220659;23;20044;-95
2022/08/01 03:30:12;;;;;;;0.10;0.10;;;;;;;;;;6220544;23;20091;-94
2022/08/01 03:32:38;;;;;;;0.10;0.10;;;;;;;;;;6220487;23;20057;-94
2022/08/01 03:35:05;;;;;;;0.10;0.10;;;;;;;;;;6220717;23;20036;-94
2022/08/01 03:37:39;;;;;;;0.10;0.10;;;;;;;;;;6220364;23;20008;-94
2022/08/01 03:40:08;;;;;;;0.10;0.10;;;;;;;;;;6220481;23;20087;-94
2022/08/01 03:42:37;;;;;;;0.10;0.10;;;;;;;;;;6220604;23;20001;-94
2022/08/01 03:45:05;;;;;;;0.10;0.10;;;;;;;;;;6220382;23;20000;-94
2022/08/01 03:47:33;;;;;;;0.10;0.10;;;;;;;;;;6220560;23;20065;-94
2022/08/01 03:50:00;;;;;;;0.10;0.10;;;;;;;;;;6220460;23;20008;-94
2022/08/01 03:52:28;;;;;;;0.10;0.10;;;;;;;;;;6220380;23;20105;-95
2022/08/01 03:54:55;;;;;;;0.10;0.10;;;;;;;;;;6222417;23;20003;-95
2022/08/01 03:57:22;;;;;;;0.20;0.20;;;;;;;;;;6222700;23;20428;-95
2022/08/01 03:59:49;;;;;;;0.10;0.10;;;;;;;;;;6222545;23;20038;-95
2022/08/01 04:02:15;;;;;;;0.20;0.20;;;;;;;;;;6223875;22;20333;-94
2022/08/01 04:04:41;;;;;;;0.10;0.10;;;;;;;;;;6222184;23;20058;-94
2022/08/01 04:07:21;;;;;;;0.10;0.10;;;;;;;;;;6249165;23;20061;-95
2022/08/01 04:09:47;;;;;;;0.10;0.10;;;;;;;;;;6221890;23;20091;-95
2022/08/01 04:12:13;;;;;;;0.10;0.10;;;;;;;;;;6222379;23;20015;-94
2022/08/01 04:14:40;;;;;;;0.20;0.20;;;;;;;;;;6222291;23;20054;-94
2022/08/01 04:17:06;;;;;;;0.20;0.20;;;;;;;;;;6222388;23;20085;-95
2022/08/01 04:19:32;;;;;;;0.10;0.10;;;;;;;;;;6222342;23;20383;-94
2022/08/01 04:21:58;;;;;;;2.17;0.77;;;;;;;;;;6222134;23;20000;-95
2022/08/01 04:24:24;;;;;;;0.10;0.10;;;;;;;;;;6222334;23;20001;-94
2022/08/01 04:26:51;;;;;;;0.10;0.10;;;;;;;;;;6222332;23;20004;-95
2022/08/01 04:29:18;;;;;;;0.10;0.10;;;;;;;;;;6222135;23;20012;-95
2022/08/01 04:31:46;;;;;;;0.22;0.22;;;;;;;;;;6222441;23;20004;-95
2022/08/01 04:34:13;;;;;;;0.10;0.10;;;;;;;;;;6222180;23;20455;-95
2022/08/01 04:36:41;;;;;;;0.45;0.45;;;;;;;;;;6221814;23;20075;-95
2022/08/01 04:39:09;;;;;;;0.10;0.10;;;;;;;;;;6222154;23;20015;-95
2022/08/01 04:41:35;;;;;;;0.10;0.10;;;;;;;;;;6222371;23;20004;-95
2022/08/01 04:44:02;;;;;;;0.20;0.20;;;;;;;;;;6222622;23;20000;-94
2022/08/01 04:46:29;;;;;;;9.82;3.63;;;;;;;;;;6222149;23;20313;-94
2022/08/01 04:48:55;;;;;;;17.00;2.92;;;;;;;;;;6222283;23;20008;-95
2022/08/01 04:51:24;;;;;;;14.80;3.55;;;;;;;;;;6222100;23;20039;-95
2022/08/01 04:53:50;;;;;;;8.45;3.42;;;;;;;;;;6222008;23;20023;-95
2022/08/01 04:56:17;;;;;;;14.45;3.55;;;;;;;;;;6222002;23;20432;-95
2022/08/01 04:58:43;;;;;;;19.40;4.22;;;;;;;;;;6222145;23;20031;-95
2022/08/01 05:01:10;;;;;;;25.92;4.30;;;;;;;;;;6223357;22;20486;-95
2022/08/01 05:03:36;;;;;;;26.17;4.90;;;;;;;;;;6222067;23;20007;-95
2022/08/01 05:06:02;;;;;;;19.05;5.18;;;;;;;;;;6221839;23;20011;-96
2022/08/01 05:08:29;;;;;;;16.38;4.43;;;;;;;;;;6221957;23;20031;-96
2022/08/01 05:10:55;;;;;;;28.33;4.50;;;;;;;;;;6221911;23;20004;-95
2022/08/01 05:13:21;;;;;;;24.40;4.68;;;;;;;;;;6222114;23;20007;-95
2022/08/01 05:15:47;;;;;;;33.78;4.53;;;;;;;;;;6221870;23;20412;-95
2022/08/01 05:18:13;;;;;;;16.83;4.75;;;;;;;;;;6221913;23;20000;-96
2022/08/01 05:20:41;;;;;;;29.27;4.35;;;;;;;;;;6221996;23;20087;-95
2022/08/01 05:23:07;;;;;;;16.05;3.88;;;;;;;;;;6221360;23;20008;-95
2022/08/01 05:25:33;;;;;;;17.25;4.38;;;;;;;;;;6221731;23;20004;-96
2022/08/01 05:27:59;;;;;;;25.27;4.75;;;;;;;;;;6221912;23;20037;-95
2022/08/01 05:30:25;;;;;;;35.67;5.15;;;;;;;;;;6222456;23;20008;-95
2022/08/01 05:32:52;;;;;;;30.23;4.50;;;;;;;;;;6221708;23;20095;-96
2022/08/01 05:35:18;;;;;;;33.55;5.43;;;;;;;;;;6222545;23;20364;-96
2022/08/01 05:37:44;;;;;;;31.90;5.07;;;;;;;;;;6221889;23;20008;-96
2022/08/01 05:40:10;;;;;;;19.08;3.92;;;;;;;;;;6221838;23;20000;-95
2022/08/01 05:42:36;;;;;;;25.10;4.03;;;;;;;;;;6222008;23;20074;-95
2022/08/01 05:45:03;;;;;;;21.42;5.03;;;;;;;;;;6222287;23;20000;-95
2022/08/01 05:47:29;;;;;;;17.48;4.25;;;;;;;;;;6222153;23;20061;-95
2022/08/01 05:49:55;;;;;;;22.17;6.07;;;;;;;;;;6222564;23;20008;-95
2022/08/01 05:52:21;;;;;;;20.27;4.80;;;;;;;;;;6222843;23;20077;-96
2022/08/01 05:54:47;;;;;;;27.00;5.53;;;;;;;;;;6223236;23;20046;-95
2022/08/01 05:57:13;;;;;;;25.65;4.00;;;;;;;;;;6223946;23;20058;-96
2022/08/01 05:59:39;;;;;;;22.05;4.13;;;;;;;;;;6233522;23;20000;-96
2022/08/01 06:02:05;;;;;;;23.40;4.00;;;;;;;;;;6233258;22;20004;-96
2022/08/01 06:04:31;;;;;;;20.27;3.67;;;;;;;;;;6238635;23;20000;-96
2022/08/01 06:06:57;;;;;;;23.33;4.45;;;;;;;;;;6238028;23;20015;-96
2022/08/01 06:09:23;;;;;;;28.58;4.43;;;;;;;;;;6240651;23;20011;-96
2022/08/01 06:11:49;;;;;;;21.80;4.20;;;;;;;;;;6247367;23;20004;-96
2022/08/01 06:14:16;;;;;;;33.67;4.07;;;;;;;;;;6240036;23;20000;-96
2022/08/01 06:16:42;;;;;;;25.45;5.03;;;;;;;;;;6247259;23;20002;-96
2022/08/01 06:19:08;;;;;;;24.15;4.35;;;;;;;;;;6247633;23;20067;-96
2022/08/01 06:21:34;;;;;;;28.48;4.82;;;;;;;;;;6248131;23;20000;-96
2022/08/01 06:24:00;;;;;;;19.90;4.30;;;;;;;;;;6231479;23;20049;-96
2022/08/01 06:26:26;;;;;;;15.80;3.50;;;;;;;;;;6227159;23;20008;-96
2022/08/01 06:28:52;;;;;;;27.55;5.28;;;;;;;;;;6225321;23;20340;-96
2022/08/01 06:31:18;;;;;;;25.95;4.55;;;;;;;;;;6223178;23;20008;-96
2022/08/01 06:33:44;;;;;;;23.42;3.72;;;;;;;;;;6222969;23;20039;-96
2022/08/01 06:36:10;;;;;;;17.58;3.60;;;;;;;;;;6222647;23;20008;-96
2022/08/01 06:38:37;;;;;;;14.48;3.67;;;;;;;;;;6222097;23;20006;-96
2022/08/01 06:41:03;;;;;;;20.73;3.70;;;;;;;;;;6221899;23;20000;-96
2022/08/01 06:43:31;;;;;;;17.10;3.72;;;;;;;;;;6222202;23;20001;-96
2022/08/01 06:45:57;;;;;;;31.27;5.72;;;;;;;;;;6221985;23;20083;-96
2022/08/01 06:48:23;;;;;;;26.85;4.35;;;;;;;;;;6222180;23;20004;-96
2022/08/01 06:50:49;;;;;;;20.85;3.90;;;;;;;;;;6222258;23;20506;-96
2022/08/01 06:53:15;;;;;;;18.70;3.50;;;;;;;;;;6222138;23;20428;-96
2022/08/01 06:55:41;;;;;;;22.90;3.85;;;;;;;;;;6222450;23;20006;-96
2022/08/01 06:58:07;;;;;;;14.10;3.15;;;;;;;;;;6222424;23;20008;-96
2022/08/01 07:00:33;;;;;;;14.43;2.97;;;;;;;;;;6221944;23;20365;-96
2022/08/01 07:03:12;;;;;;;27.52;3.90;;;;;;;;;;6223847;22;20012;-96
2022/08/01 07:05:38;;;;;;;23.92;3.28;;;;;;;;;;6221488;23;20436;-96
2022/08/01 07:08:04;;;;;;;15.05;3.10;;;;;;;;;;6221402;23;20019;-96
2022/08/01 07:10:30;;;;;;;13.27;3.50;;;;;;;;;;6221329;23;20008;-96
2022/08/01 07:12:56;;;;;;;16.50;3.05;;;;;;;;;;6221233;23;20317;-96
2022/08/01 07:15:26;;;;;;;18.35;3.40;;;;;;;;;;6220998;23;20011;-96
2022/08/01 07:17:52;;;;;;;17.17;3.33;;;;;;;;;;6221003;23;20087;-96
2022/08/01 07:20:18;;;;;;;14.90;2.88;;;;;;;;;;6220794;23;20455;-96
2022/08/01 07:22:44;;;;;;;14.68;2.95;;;;;;;;;;6220957;23;20090;-96
2022/08/01 07:25:10;;;;;;;14.45;3.05;;;;;;;;;;6221260;23;20000;-96
2022/08/01 07:27:37;;;;;;;14.88;3.50;;;;;;;;;;6221255;23;20433;-96
2022/08/01 07:30:04;;;;;;;19.58;3.28;;;;;;;;;;6222950;23;20433;-96
2022/08/01 07:32:30;;;;;;;19.25;5.30;;;;;;;;;;6223023;23;20011;-96
2022/08/01 07:34:57;;;;;;;9.38;3.17;;;;;;;;;;6223143;23;20008;-96
2022/08/01 07:37:23;;;;;;;17.20;2.88;;;;;;;;;;6223019;23;20112;-96
2022/08/01 07:39:50;;;;;;;13.20;2.60;;;;;;;;;;6222930;23;20004;-96
2022/08/01 07:42:16;;;;;;;12.27;2.55;;;;;;;;;;6223566;23;20035;-96
2022/08/01 07:44:42;;;;;;;17.92;3.33;;;;;;;;;;6223235;23;20054;-96
2022/08/01 07:47:08;;;;;;;17.40;2.70;;;;;;;;;;6222898;23;20004;-96
2022/08/01 07:49:35;;;;;;;18.48;2.60;;;;;;;;;;6223504;23;20008;-96
2022/08/01 07:52:03;;;;;;;18.85;3.35;;;;;;;;;;6223067;23;20064;-96
2022/08/01 07:54:29;;;;;;;10.45;2.63;;;;;;;;;;6223368;23;20091;-96
2022/08/01 07:56:56;;;;;;;19.27;3.15;;;;;;;;;;6222822;23;20008;-96
2022/08/01 07:59:23;;;;;;;11.52;2.70;;;;;;;;;;6223038;23;20024;-96
2022/08/01 08:01:50;;;;;;;11.68;2.72;;;;;;;;;;6223084;22;20091;-96
2022/08/01 08:04:17;;;;;;;16.42;2.83;;;;;;;;;;6223095;23;20380;-96
2022/08/01 08:06:44;;;;;;;9.15;2.25;;;;;;;;;;6224772;23;20031;-96
2022/08/01 08:09:10;;;;;;;19.50;3.55;;;;;;;;;;6223031;23;20494;-96
2022/08/01 08:11:36;;;;;;;16.13;2.60;;;;;;;;;;6222692;23;20425;-96
2022/08/01 08:14:03;;;;;;;8.73;2.00;;;;;;;;;;6222760;23;20099;-96
2022/08/01 08:16:29;;;;;;;15.95;2.47;;;;;;;;;;6222774;23;20513;-96
2022/08/01 08:18:55;;;;;;;12.90;2.65;;;;;;;;;;6222665;23;20011;-96
2022/08/01 08:21:21;;;;;;;11.98;2.33;;;;;;;;;;6222482;23;20340;-96
2022/08/01 08:26:31;;;;;;;12.77;2.30;;;;;;;;;;6249365;23;20070;-96
2022/08/01 08:28:57;;;;;;;11.43;1.90;;;;;;;;;;6222641;23;20004;-96
2022/08/01 08:31:23;;;;;;;11.45;3.38;;;;;;;;;;6222975;23;20015;-96
2022/08/01 08:33:49;;;;;;;18.90;2.75;;;;;;;;;;6222259;23;20064;-96
2022/08/01 08:36:15;;;;;;;13.50;3.28;;;;;;;;;;6222410;23;20099;-96
2022/08/01 08:38:41;;;;;;;13.98;2.83;;;;;;;;;;6222245;23;20134;-96
2022/08/01 08:41:08;;;;;;;8.50;2.20;;;;;;;;;;6222532;23;20082;-96
2022/08/01 08:43:35;;;;;;;16.15;2.72;;;;;;;;;;6222411;23;20091;-96
2022/08/01 08:46:02;;;;;;;12.10;2.25;;;;;;;;;;6222780;23;20014;-96
2022/08/01 08:48:29;;;;;;;11.02;2.30;;;;;;;;;;6222612;23;20035;-96
2022/08/01 08:50:55;;;;;;;11.23;2.25;;;;;;;;;;6223076;23;20004;-96
2022/08/01 08:53:22;;;;;;;9.52;2.08;;;;;;;;;;6221998;23;20000;-96
2022/08/01 08:55:48;;;;;;;15.40;2.63;;;;;;;;;;6222587;23;20428;-96
2022/08/01 08:58:15;;;;;;;10.95;2.13;;;;;;;;;;6222295;23;20008;-96
2022/08/01 09:00:41;;;;;;;13.00;2.45;;;;;;;;;;6221703;23;20004;-96
2022/08/01 09:03:07;;;;;;;7.45;2.70;;;;;;;;;;6223716;22;20444;-96
2022/08/01 09:05:34;;;;;;;8.93;1.95;;;;;;;;;;6221964;23;20004;-95
2022/08/01 09:08:00;;;;;;;8.73;2.22;;;;;;;;;;6221559;23;20008;-94
2022/08/01 09:10:26;;;;;;;10.77;2.05;;;;;;;;;;6221735;23;20008;-94
2022/08/01 09:13:04;;;;;;;15.90;2.10;;;;;;;;;;6221595;23;20436;-95
2022/08/01 09:16:00;;;;;;;6.38;1.83;;;;;;;;;;6221406;23;20460;-94
2022/08/01 09:18:32;;;;;;;15.43;2.42;;;;;;;;;;6217517;23;20004;-94
2022/08/01 09:21:12;;;;;;;8.40;2.25;;;;;;;;;;6221291;23;20004;-94
2022/08/01 09:24:02;;;;;;;7.95;2.70;;;;;;;;;;6221016;23;20008;-93
2022/08/01 09:26:37;;;;;;;12.82;2.08;;;;;;;;;;6221216;23;20008;-93
2022/08/01 09:29:05;;;;;;;14.20;2.08;;;;;;;;;;6220719;23;20384;-94
2022/08/01 09:31:39;;;;;;;9.00;1.50;;;;;;;;;;6221032;23;20011;-94
2022/08/01 09:34:07;;;;;;;9.55;2.20;;;;;;;;;;6220848;23;20077;-94
2022/08/01 09:36:53;;;;;;;11.15;2.30;;;;;;;;;;6220931;23;20340;-94
2022/08/01 09:39:19;;;;;;;11.75;2.33;;;;;;;;;;6219830;23;20000;-94
2022/08/01 09:41:46;;;;;;;11.10;1.92;;;;;;;;;;6219845;23;20512;-93
2022/08/01 09:44:13;;;;;;;8.85;1.48;;;;;;;;;;6220218;23;20011;-93
2022/08/01 09:46:53;;;;;;;9.25;2.00;;;;;;;;;;6220912;23;20091;-94
2022/08/01 09:49:33;;;;;;;9.18;2.30;;;;;;;;;;6221134;23;20011;-93
2022/08/01 09:52:00;;;;;;;11.38;2.05;;;;;;;;;;6220099;23;20011;-93
2022/08/01 09:54:30;;;;;;;6.70;2.03;;;;;;;;;;6220829;23;20008;-93
2022/08/01 09:57:07;;;;;;;15.52;1.92;;;;;;;;;;6220379;23;20004;-93
2022/08/01 09:59:40;;;;;;;9.50;1.55;;;;;;;;;;6220400;23;20004;-94
2022/08/01 10:02:06;;;;;;;6.28;1.67;;;;;;;;;;6220956;22;20004;-94
2022/08/01 10:04:38;;;;;;;8.75;1.90;;;;;;;;;;6222770;22;20085;-93
2022/08/01 10:07:07;;;;;;;8.25;1.98;;;;;;;;;;6248144;23;20054;-94
2022/08/01 10:09:35;;;;;;;5.57;2.10;;;;;;;;;;6223774;23;20015;-93
2022/08/01 10:12:02;;;;;;;7.97;1.70;;;;;;;;;;6224228;23;20011;-92
2022/08/01 10:14:29;;;;;;;6.32;1.80;;;;;;;;;;6227055;23;20019;-94
2022/08/01 10:16:56;;;;;;;9.27;1.90;;;;;;;;;;6229160;23;20008;-95
2022/08/01 10:19:23;;;;;;;7.10;1.48;;;;;;;;;;6232020;23;20447;-94
2022/08/01 10:21:52;;;;;;;8.70;1.92;;;;;;;;;;6241131;23;20064;-93
2022/08/01 10:24:19;;;;;;;10.30;1.92;;;;;;;;;;6241507;23;20003;-93
2022/08/01 10:26:48;;;;;;;11.02;2.17;;;;;;;;;;6241637;23;20011;-92
2022/08/01 10:29:16;;;;;;;5.60;1.67;;;;;;;;;;6242101;23;20040;-92
2022/08/01 10:31:42;;;;;;;8.95;1.95;;;;;;;;;;6240394;23;20409;-91
2022/08/01 10:34:09;;;;;;;10.30;1.63;;;;;;;;;;6224659;23;20008;-92
2022/08/01 10:36:38;;;;;;;10.93;2.72;;;;;;;;;;6197053;23;20034;-93
2022/08/01 10:39:05;;;;;;;6.10;1.65;;;;;;;;;;6218676;23;20035;-93
2022/08/01 10:41:32;;;;;;;8.95;2.00;;;;;;;;;;6218488;23;20025;-92
2022/08/01 10:43:58;;;;;;;8.40;2.35;;;;;;;;;;6217357;23;20591;-92
2022/08/01 10:46:25;;;;;;;6.72;1.80;;;;;;;;;;6217917;23;20008;-93
2022/08/01 10:49:09;;;;;;;8.70;1.98;;;;;;;;;;6217370;23;20008;-93
2022/08/01 10:51:38;;;;;;;13.80;2.10;;;;;;;;;;6216666;23;20371;-93
2022/08/01 10:54:12;;;;;;;7.80;1.77;;;;;;;;;;6192128;23;20024;-93
2022/08/01 10:56:40;;;;;;;7.22;2.15;;;;;;;;;;6216091;23;20015;-93
2022/08/01 10:59:06;;;;;;;7.32;2.38;;;;;;;;;;6216073;23;20240;-92
2022/08/01 11:01:33;;;;;;;10.23;2.00;;;;;;;;;;6215665;23;20004;-92
2022/08/01 11:04:16;;;;;;;7.35;2.03;;;;;;;;;;6216558;22;20375;-93
2022/08/01 11:07:04;;;;;;;7.85;1.83;;;;;;;;;;6215560;23;20008;-93
2022/08/01 11:09:31;;;;;;;8.63;1.65;;;;;;;;;;6215275;23;20004;-92
2022/08/01 11:12:03;;;;;;;6.00;1.80;;;;;;;;;;6215524;23;20008;-92
2022/08/01 11:14:30;;;;;;;15.30;1.95;;;;;;;;;;6215099;23;20440;-93
2022/08/01 11:16:56;;;;;;;7.55;1.70;;;;;;;;;;6190360;23;20008;-92
2022/08/01 11:19:22;;;;;;;7.55;1.70;;;;;;;;;;6215299;23;20035;-92
2022/08/01 11:22:03;;;;;;;5.82;1.75;;;;;;;;;;6214872;23;20428;-92
2022/08/01 11:24:48;;;;;;;13.57;3.00;;;;;;;;;;6214959;23;20011;-92
2022/08/01 11:27:31;;;;;;;5.75;1.95;;;;;;;;;;6241573;23;20074;-92
2022/08/01 11:30:09;;;;;;;9.25;2.10;;;;;;;;;;6214833;23;20003;-92
2022/08/01 11:32:52;;;;;;;5.35;1.60;;;;;;;;;;6214748;23;20012;-92
2022/08/01 11:35:20;;;;;;;4.90;1.77;;;;;;;;;;6214989;23;20012;-93
2022/08/01 11:37:47;;;;;;;7.70;1.90;;;;;;;;;;6214449;23;20030;-92
2022/08/01 11:40:24;;;;;;;4.13;1.55;;;;;;;;;;6213144;23;20012;-92
2022/08/01 11:42:51;;;;;;;8.13;1.95;;;;;;;;;;6214067;23;20054;-92
2022/08/01 11:45:18;;;;;;;7.57;1.63;;;;;;;;;;6214697;23;20016;-92
2022/08/01 11:47:44;;;;;;;8.20;1.52;;;;;;;;;;6214476;23;20683;-92
2022/08/01 11:50:29;;;;;;;5.85;1.80;;;;;;;;;;6214444;23;20011;-93
2022/08/01 11:53:02;;;;;;;8.70;1.80;;;;;;;;;;6213525;23;20312;-92
2022/08/01 11:55:29;;;;;;;4.68;1.55;;;;;;;;;;6213319;23;20008;-93
2022/08/01 11:58:02;;;;;;;10.07;1.98;;;;;;;;;;6214235;23;20008;-92
2022/08/01 12:00:30;;;;;;;8.80;1.98;;;;;;;;;;6241703;23;20000;-92
2022/08/01 12:02:58;;;;;;;6.72;1.70;;;;;;;;;;6213664;23;20451;-92
2022/08/01 12:05:24;;;;;;;7.15;1.60;;;;;;;;;;6215217;22;20016;-92
2022/08/01 12:07:51;;;;;;;9.13;1.80;;;;;;;;;;6213989;23;20008;-92
2022/08/01 12:10:19;;;;;;;7.13;1.40;;;;;;;;;;6213674;23;20014;-92
2022/08/01 12:12:46;;;;;;;5.78;1.50;;;;;;;;;;6212992;23;20596;-92
2022/08/01 12:15:13;;;;;;;6.47;1.30;;;;;;;;;;6215279;23;20758;-92
2022/08/01 12:17:43;;;;;;;10.05;1.50;;;;;;;;;;6216327;23;20035;-92
2022/08/01 12:20:11;;;;;;;6.60;1.63;;;;;;;;;;6216023;23;20008;-93
2022/08/01 12:22:37;;;;;;;6.03;1.55;;;;;;;;;;6215719;23;20011;-92
2022/08/01 12:25:14;;;;;;;4.50;1.40;;;;;;;;;;6241905;23;20023;-92
2022/08/01 12:27:41;;;;;;;8.13;1.75;;;;;;;;;;6215276;23;20009;-92
2022/08/01 12:30:08;;;;;;;11.82;1.65;;;;;;;;;;6216182;23;20031;-92
2022/08/01 12:32:36;;;;;;;6.25;1.85;;;;;;;;;;6215865;23;20008;-92
2022/08/01 12:35:05;;;;;;;6.03;1.50;;;;;;;;;;6216605;23;20008;-92
2022/08/01 12:37:32;;;;;;;9.18;1.70;;;;;;;;;;6215803;23;20057;-92
2022/08/01 12:39:59;;;;;;;5.05;1.65;;;;;;;;;;6213722;23;20004;-92
2022/08/01 12:42:25;;;;;;;8.90;2.00;;;;;;;;;;6215738;23;20266;-93
2022/08/01 12:44:52;;;;;;;6.43;1.67;;;;;;;;;;6215682;23;20482;-92
2022/08/01 12:47:20;;;;;;;6.43;1.80;;;;;;;;;;6215627;23;20016;-92
2022/08/01 12:49:46;;;;;;;6.05;1.90;;;;;;;;;;6214562;23;20012;-92
2022/08/01 12:52:13;;;;;;;6.90;1.55;;;;;;;;;;6216372;23;20004;-92
2022/08/01 12:54:58;;;;;;;6.20;1.85;;;;;;;;;;6215516;23;20011;-92
2022/08/01 12:57:24;;;;;;;5.97;1.67;;;;;;;;;;6215495;23;20004;-92
2022/08/01 12:59:53;;;;;;;6.88;1.48;;;;;;;;;;6215297;23;20094;-92
2022/08/01 13:02:19;;;;;;;3.60;1.33;;;;;;;;;;6215458;23;20008;-92
2022/08/01 13:04:51;;;;;;;7.28;1.73;;;;;;;;;;6216464;22;20461;-92
2022/08/01 13:07:17;;;;;;;8.63;1.52;;;;;;;;;;6215794;23;20012;-92
2022/08/01 13:09:52;;;;;;;4.78;1.52;;;;;;;;;;6214440;23;20322;-91
2022/08/01 13:12:18;;;;;;;2.50;1.38;;;;;;;;;;6215378;23;20098;-93
2022/08/01 13:14:44;;;;;;;5.03;1.52;;;;;;;;;;6214661;23;20380;-92
2022/08/01 13:17:10;;;;;;;6.22;1.58;;;;;;;;;;6215554;23;20032;-92
2022/08/01 13:19:47;;;;;;;8.25;1.55;;;;;;;;;;6242015;23;20007;-92
2022/08/01 13:22:13;;;;;;;5.78;1.40;;;;;;;;;;6215714;23;20009;-91
2022/08/01 13:24:39;;;;;;;4.30;1.60;;;;;;;;;;6215183;23;20417;-92
2022/08/01 13:27:06;;;;;;;6.40;1.48;;;;;;;;;;6214684;23;20395;-92
2022/08/01 13:29:40;;;;;;;7.65;2.03;;;;;;;;;;6214814;23;20095;-92
2022/08/01 13:32:20;;;;;;;6.40;1.58;;;;;;;;;;6215217;23;20004;-92
2022/08/01 13:34:46;;;;;;;9.38;2.15;;;;;;;;;;6214952;23;20313;-92
2022/08/01 13:37:12;;;;;;;6.82;1.40;;;;;;;;;;6214671;23;20004;-92
2022/08/01 13:39:43;;;;;;;7.85;1.52;;;;;;;;;;6213199;23;20310;-91
2022/08/01 13:42:14;;;;;;;10.25;1.50;;;;;;;;;;6215385;23;20015;-93
2022/08/01 13:44:40;;;;;;;8.32;1.77;;;;;;;;;;6214610;23;20443;-92
2022/08/01 13:47:06;;;;;;;6.60;1.58;;;;;;;;;;6214993;23;20365;-92
2022/08/01 13:49:33;;;;;;;5.68;1.77;;;;;;;;;;6214858;23;20658;-91
2022/08/01 13:51:59;;;;;;;5.38;1.30;;;;;;;;;;6214509;23;20332;-92
2022/08/01 13:54:25;;;;;;;5.80;1.50;;;;;;;;;;6214473;23;20012;-92
2022/08/01 13:56:52;;;;;;;7.50;1.50;;;;;;;;;;6214499;23;20491;-91
2022/08/01 13:59:19;;;;;;;4.40;1.40;;;;;;;;;;6213915;23;20087;-91
2022/08/01 14:01:45;;;;;;;5.50;1.38;;;;;;;;;;6214465;23;20414;-91
2022/08/01 14:04:23;;;;;;;6.88;1.77;;;;;;;;;;6217520;22;20445;-92
2022/08/01 14:06:50;;;;;;;7.28;1.95;;;;;;;;;;6213749;23;20491;-92
2022/08/01 14:09:19;;;;;;;4.80;1.45;;;;;;;;;;6213762;23;20008;-91
2022/08/01 14:11:45;;;;;;;5.50;1.13;;;;;;;;;;6213882;23;20090;-91
2022/08/01 14:14:12;;;;;;;5.22;1.40;;;;;;;;;;6213801;23;20019;-92
2022/08/01 14:16:39;;;;;;;10.27;1.73;;;;;;;;;;6216013;23;20155;-91
2022/08/01 14:19:05;;;;;;;5.70;1.58;;;;;;;;;;6213878;23;20004;-91
2022/08/01 14:21:31;;;;;;;7.25;1.50;;;;;;;;;;6214302;23;20004;-91
2022/08/01 14:23:57;;;;;;;13.93;2.30;;;;;;;;;;6213991;23;20012;-92
2022/08/01 14:26:23;;;;;;;6.72;1.90;;;;;;;;;;6213507;23;20004;-91
2022/08/01 14:28:49;;;;;;;11.30;2.50;;;;;;;;;;6241437;23;20061;-91
2022/08/01 14:31:15;;;;;;;6.32;1.83;;;;;;;;;;6214898;23;20000;-91
2022/08/01 14:33:41;;;;;;;9.43;2.00;;;;;;;;;;6214047;23;20378;-92
2022/08/01 14:36:07;;;;;;;4.50;1.75;;;;;;;;;;6213598;23;20008;-91
2022/08/01 14:38:33;;;;;;;3.88;1.48;;;;;;;;;;6213349;23;20004;-92
2022/08/01 14:41:00;;;;;;;9.82;4.10;;;;;;;;;;6212908;23;20001;-91
2022/08/01 14:43:26;;;;;;;15.77;2.58;;;;;;;;;;6214353;23;20207;-92
2022/08/01 14:45:54;;;;;;;5.43;1.75;;;;;;;;;;6215172;23;20008;-91
2022/08/01 14:48:20;;;;;;;8.32;2.00;;;;;;;;;;6217159;23;20008;-91
2022/08/01 14:50:46;;;;;;;10.68;2.05;;;;;;;;;;6216390;23;20062;-92